Home > Products > Valid Products > TAF

000
FTUS43 KLBF 221100
TAFVTN
TAF
KVTN 221120Z 2212/2312 17004KT P6SM BKN080
     FM221500 18014KT P6SM BKN080
     FM222000 17023G32KT P6SM BKN080
     FM230000 16016G27KT P6SM OVC080
      TEMPO 2301/2305 5SM SHRA OVC040
     FM230600 16014KT P6SM OVC080=



000
FTUS43 KLBF 221100
TAFLBF
TAF
KLBF 221120Z 2212/2312 12006KT P6SM BKN100
     FM221600 17014G20KT P6SM OVC100
     FM222000 16017G26KT P6SM OVC070
      TEMPO 2221/2224 3SM +TSRA OVC035CB
     FM230000 15014KT P6SM -SHRA OVC050
     FM230300 13010KT P6SM OVC070=



000
FTUS43 KLBF 220500
TAFLBF
TAF
KLBF 220521Z 2206/2306 09003KT P6SM SCT090
     FM221000 12006KT P6SM BKN090
     FM221600 17012G19KT P6SM OVC090
     FM222200 16016G25KT 3SM RA OVC035=



000
FTUS43 KLBF 220500
TAFVTN
TAF
KVTN 220521Z 2206/2306 VRB03KT P6SM SKC
     FM221500 18014KT P6SM SCT120
     FM222000 17017G25KT P6SM OVC040
     FM230000 16013G22KT 3SM RA BKN025=



000
FTUS43 KLBF 212300
TAFLBF
TAF
KLBF 212336Z 2200/2224 05007KT P6SM SCT120
     FM221000 12006KT P6SM BKN090
     FM221600 17012G19KT P6SM OVC090
     FM221900 17017G25KT P6SM OVC070=



000
FTUS43 KLBF 212300
TAFVTN
TAF
KVTN 212336Z 2200/2224 01007KT P6SM SKC
     FM221500 18014KT P6SM SCT120
     FM222000 17017G25KT P6SM OVC040=



000
FTUS43 KLBF 211700
TAFVTN
TAF
KVTN 211720Z 2118/2218 34011KT P6SM SKC
     FM220000 VRB05KT P6SM SKC
     FM221500 18011KT P6SM SCT120=



000
FTUS43 KLBF 211700
TAFLBF
TAF
KLBF 211720Z 2118/2218 VRB06KT P6SM SCT100
     FM220100 12006KT P6SM BKN100
     FM221500 17012KT P6SM BKN120=



000
FTUS43 KLBF 211100
TAFLBF
TAF
KLBF 211120Z 2112/2212 VRB06KT P6SM SCT100
     FM220100 12006KT P6SM BKN100=



000
FTUS43 KLBF 211100
TAFVTN
TAF
KVTN 211120Z 2112/2212 34008KT P6SM SKC
     FM220000 VRB05KT P6SM SKC
     FM220600 17008KT P6SM SKC=



000
FTUS43 KLBF 210500
TAFLBF
TAF
KLBF 210522Z 2106/2206 05003KT P6SM SKC
     FM212000 VRB06KT P6SM SKC
     FM220100 10004KT P6SM SKC=



000
FTUS43 KLBF 210500
TAFVTN
TAF
KVTN 210522Z 2106/2206 VRB06KT P6SM SKC
     FM220200 12004KT P6SM SKC=



000
FTUS43 KLBF 202300 CCA
TAFLBF
TAF COR
KLBF 202348Z 2100/2124 31013KT P6SM FEW070
     FM210030 35011KT P6SM SKC
     FM210200 34004KT P6SM SKC
     FM212000 07007KT P6SM SKC=



000
FTUS43 KLBF 202300
TAFVTN
TAF
KVTN 202320Z 2100/2124 33018G29KT P6SM SKC
     FM210100 35007KT P6SM SKC
     FM212300 06006KT P6SM SKC=



000
FTUS43 KLBF 202300
TAFLBF
TAF
KLBF 202320Z 2100/2124 31013KT P6SM FEW070
     FM210030 31004KT P6SM SKC
     FM212000 07007KT P6SM SKC=



000
FTUS43 KLBF 202200 AAB
TAFVTN
TAF AMD
KVTN 202256Z 2023/2118 33017G27KT P6SM SKC
     FM210100 35007KT P6SM SKC=



000
FTUS43 KLBF 201900 AAA
TAFVTN
TAF AMD
KVTN 201911Z 2019/2118 31017G27KT P6SM SKC
     FM210100 35007KT P6SM SKC=



000
FTUS43 KLBF 201700
TAFVTN
TAF
KVTN 201720Z 2018/2118 32012G17KT P6SM SKC
     FM210100 35007KT P6SM SKC=



000
FTUS43 KLBF 201700
TAFLBF
TAF
KLBF 201720Z 2018/2118 36010KT P6SM SKC
     FM202000 33012G18KT P6SM FEW100
     FM210000 VRB06KT P6SM SCT100=



000
FTUS43 KLBF 201100
TAFVTN
TAF
KVTN 201123Z 2012/2112 28004KT P6SM FEW080 SCT100
     FM201800 32018G24KT P6SM FEW100
     FM210000 35007KT P6SM SKC=



000
FTUS43 KLBF 201100
TAFLBF
TAF
KLBF 201123Z 2012/2112 01010KT P6SM SKC
     FM202000 36012G18KT P6SM FEW100
     FM210000 36008KT P6SM SCT100=



000
FTUS43 KLBF 200500
TAFVTN
TAF
KVTN 200520Z 2006/2106 VRB05KT P6SM SKC
     FM201000 32005KT P6SM BKN120
     FM201800 33015G24KT P6SM SKC=



000
FTUS43 KLBF 200500
TAFLBF
TAF
KLBF 200520Z 2006/2106 VRB05KT P6SM BKN120
      TEMPO 2006/2007 VRB25G35KT 5SM TSRA BKN050CB
     FM200800 34012KT P6SM SCT060 BKN120
     FM201200 02012KT P6SM SCT120
     FM202200 36012G18KT P6SM SKC=



000
FTUS43 KLBF 200300 AAA
TAFLBF
TAF AMD
KLBF 200300Z 2003/2024 04007KT P6SM SCT120
     FM201200 02012KT P6SM SCT120
     FM202200 36007KT P6SM SKC=



000
FTUS43 KLBF 192300
TAFVTN
TAF
KVTN 192337Z 2000/2024 VRB03KT P6SM SKC
     FM200600 32005KT P6SM BKN080
     FM201800 33013KT P6SM SKC=



000
FTUS43 KLBF 192300
TAFLBF
TAF
KLBF 192337Z 2000/2024 21012KT P6SM SCT100
     FM200200 VRB05KT P6SM VCTS BKN080CB
     FM200400 04007KT P6SM SCT120
     FM201200 02012KT P6SM SCT120
     FM202200 36007KT P6SM SKC=



000
FTUS43 KLBF 192200 AAB
TAFLBF
TAF AMD
KLBF 192240Z 1923/2018 21011G18KT P6SM SKC
     FM200200 VRB05KT P6SM VCTS BKN080CB
     FM200400 VRB06KT P6SM SCT120
     FM201200 02012KT P6SM SCT120=



000
FTUS43 KLBF 192000 AAA
TAFLBF
TAF AMD
KLBF 192003Z 1920/2018 22013G19KT P6SM SKC
     FM200000 VRB05KT P6SM BKN120
      TEMPO 2003/2006 VRB15G30KT -TSRA SCT060CB
     FM201200 02010KT P6SM SCT120=



000
FTUS43 KLBF 191700
TAFVTN
TAF
KVTN 191728Z 1918/2018 33011KT P6SM SCT150
     FM192000 32008KT P6SM SCT100 BKN200
     FM200600 32005KT P6SM BKN080=



000
FTUS43 KLBF 191700
TAFLBF
TAF
KLBF 191728Z 1918/2018 23011KT P6SM SKC
     FM200000 VRB05KT P6SM BKN120 PROB30 2003/2006 -TSRA SCT060CB
     FM201200 02010KT P6SM SCT120=



    US Dept of Commerce
    National Oceanic and Atmospheric Administration
    National Weather Service
    1325 East West Highway
    Silver Spring, MD 20910
    Page Author: NWS Internet Services Team
Disclaimer
Information Quality
Credits
Glossary
Privacy Policy
Freedom of Information Act (FOIA)
About Us
Career Opportunities